Time;durP1;ratioP1;P1;durP2;ratioP2;P2;SDS_P1;SDS_P2;PMS_P1;PMS_P2;Temp;Humidity;BMP_temperature;BMP_pressure;BME280_temperature;BME280_humidity;BME280_pressure;Samples;Min_cycle;Max_cycle;Signal;HPM_P1;HPM_P2
2022/08/27 00:01:16;;;;;;;23.20;11.38;;;;;18.60;96015.00;;;;8365921;28;20228;-68
2022/08/27 00:05:20;;;;;;;21.15;10.10;;;;;18.50;96021.00;;;;8365854;28;20223;-68
2022/08/27 00:09:24;;;;;;;22.30;10.48;;;;;18.50;96028.00;;;;8365483;28;20222;-69
2022/08/27 00:14:00;;;;;;;26.35;11.48;;;;;18.50;96034.00;;;;8366036;28;20251;-68
2022/08/27 00:18:03;;;;;;;40.50;11.57;;;;;18.40;96023.00;;;;8364642;28;20681;-68
2022/08/27 00:22:09;;;;;;;23.40;11.50;;;;;18.40;96024.00;;;;8365494;28;20307;-68
2022/08/27 00:26:13;;;;;;;26.08;13.02;;;;;18.30;96016.00;;;;8365063;28;20229;-69
2022/08/27 00:30:46;;;;;;;30.17;12.85;;;;;18.20;96019.00;;;;8364385;28;20588;-68
2022/08/27 00:34:50;;;;;;;29.20;14.38;;;;;18.20;96020.00;;;;8365138;28;20226;-68
2022/08/27 00:38:55;;;;;;;31.92;13.52;;;;;18.20;96016.00;;;;8364825;28;20220;-68
2022/08/27 00:43:32;;;;;;;33.40;15.00;;;;;18.30;96016.00;;;;8365008;28;20243;-69
2022/08/27 00:47:41;;;;;;;27.63;14.15;;;;;18.30;96019.00;;;;8364305;28;20221;-68
2022/08/27 00:51:56;;;;;;;24.63;13.40;;;;;18.50;96019.00;;;;8364439;28;20581;-68
2022/08/27 00:56:07;;;;;;;36.42;14.60;;;;;18.60;96028.00;;;;8364321;28;20217;-68
2022/08/27 01:00:35;;;;;;;16.67;11.23;;;;;18.60;96028.00;;;;8364089;28;20213;-68
2022/08/27 01:04:40;;;;;;;26.58;13.18;;;;;18.60;96032.00;;;;8363318;28;20223;-69
2022/08/27 01:08:48;;;;;;;28.05;12.85;;;;;18.60;96035.00;;;;8364316;28;20257;-69
2022/08/27 01:12:53;;;;;;;25.42;12.15;;;;;18.50;96033.00;;;;8388199;28;20600;-69
2022/08/27 01:17:28;;;;;;;27.10;13.50;;;;;18.50;96032.00;;;;8396785;28;20250;-68
2022/08/27 01:21:36;;;;;;;114.22;16.05;;;;;18.50;96036.00;;;;8395853;28;20247;-68
2022/08/27 01:25:43;;;;;;;66.10;15.55;;;;;18.60;96039.00;;;;8396341;28;20216;-69
2022/08/27 01:29:46;;;;;;;37.83;12.88;;;;;18.50;96034.00;;;;8396043;28;20306;-68
2022/08/27 01:34:20;;;;;;;43.42;15.77;;;;;18.50;96034.00;;;;8395967;28;20255;-68
2022/08/27 01:38:23;;;;;;;36.95;13.90;;;;;18.40;96047.00;;;;8396150;28;20661;-69
2022/08/27 01:42:37;;;;;;;27.00;13.15;;;;;18.50;96049.00;;;;8395546;28;20223;-68
2022/08/27 01:46:41;;;;;;;26.45;13.55;;;;;18.40;96048.00;;;;8395093;28;20228;-68
2022/08/27 01:50:44;;;;;;;30.50;13.75;;;;;18.40;96044.00;;;;8395808;28;20220;-68
2022/08/27 01:54:49;;;;;;;25.88;13.95;;;;;18.50;96047.00;;;;8395638;28;20230;-68
2022/08/27 01:59:25;;;;;;;31.60;14.43;;;;;18.50;96045.00;;;;8394311;28;20223;-68
2022/08/27 02:03:41;;;;;;;30.25;14.75;;;;;18.50;96045.00;;;;8395370;28;20219;-68
2022/08/27 02:07:45;;;;;;;29.50;13.63;;;;;18.40;96047.00;;;;8394903;28;20232;-68
2022/08/27 02:11:49;;;;;;;41.55;18.25;;;;;18.40;96043.00;;;;8395023;28;20811;-68
2022/08/27 02:16:27;;;;;;;36.65;14.20;;;;;18.30;96040.00;;;;8394773;28;20717;-68
2022/08/27 02:20:31;;;;;;;34.08;15.45;;;;;18.30;96036.00;;;;8394555;28;20223;-68
2022/08/27 02:25:08;;;;;;;34.00;13.95;;;;;18.30;96030.00;;;;8394574;28;20212;-68
2022/08/27 02:29:12;;;;;;;28.42;13.60;;;;;18.20;96037.00;;;;8394348;28;20269;-68
2022/08/27 02:33:16;;;;;;;31.33;14.48;;;;;18.20;96034.00;;;;8394568;28;20685;-68
2022/08/27 02:37:21;;;;;;;34.13;16.42;;;;;18.20;96043.00;;;;8393721;28;20306;-68
2022/08/27 02:41:54;;;;;;;26.23;13.98;;;;;18.20;96044.00;;;;8394082;28;20347;-68
2022/08/27 02:45:58;;;;;;;32.83;15.40;;;;;18.20;96048.00;;;;8385637;28;20222;-68
2022/08/27 02:50:02;;;;;;;26.73;13.63;;;;;18.20;96050.00;;;;8394929;28;20244;-68
2022/08/27 02:54:06;;;;;;;25.25;13.98;;;;;18.20;96043.00;;;;8394190;28;20646;-67
2022/08/27 02:58:15;;;;;;;28.40;12.98;;;;;18.10;96046.00;;;;8394748;28;20264;-68
2022/08/27 03:02:18;;;;;;;24.85;12.55;;;;;18.10;96040.00;;;;8393909;28;20660;-68
2022/08/27 03:06:23;;;;;;;30.42;12.93;;;;;18.10;96029.00;;;;8394445;28;20315;-68
2022/08/27 03:10:26;;;;;;;22.95;13.43;;;;;18.00;96029.00;;;;8393795;28;21105;-68
2022/08/27 03:14:30;;;;;;;28.08;13.57;;;;;18.00;96035.00;;;;8394122;28;20218;-68
2022/08/27 03:18:34;;;;;;;28.73;13.80;;;;;18.00;96029.00;;;;8393797;28;20328;-68
2022/08/27 03:22:39;;;;;;;27.80;12.90;;;;;18.00;96030.00;;;;8393858;28;20228;-68
2022/08/27 03:27:14;;;;;;;24.83;13.52;;;;;17.90;96028.00;;;;8392779;28;20266;-68
2022/08/27 03:31:25;;;;;;;25.25;13.60;;;;;17.80;96030.00;;;;8393803;28;20239;-68
2022/08/27 03:35:30;;;;;;;30.88;14.20;;;;;17.80;96025.00;;;;8393208;28;20557;-68
2022/08/27 03:39:37;;;;;;;31.00;13.93;;;;;17.70;96038.00;;;;8392228;28;20223;-69
2022/08/27 03:43:40;;;;;;;26.08;13.48;;;;;17.60;96041.00;;;;8392881;28;20665;-68
2022/08/27 03:47:44;;;;;;;25.35;13.55;;;;;17.60;96027.00;;;;8393211;28;20251;-68
2022/08/27 03:51:47;;;;;;;26.15;13.85;;;;;17.70;96021.00;;;;8393083;28;20301;-68
2022/08/27 03:55:52;;;;;;;29.15;13.82;;;;;17.60;96019.00;;;;8393532;28;20231;-67
2022/08/27 03:59:55;;;;;;;30.80;14.57;;;;;17.60;96015.00;;;;8393177;28;20312;-68
2022/08/27 04:03:59;;;;;;;36.72;15.07;;;;;17.60;96018.00;;;;8393482;28;20255;-68
2022/08/27 04:08:36;;;;;;;29.98;14.02;;;;;17.60;96012.00;;;;8398313;28;20298;-68
2022/08/27 04:12:40;;;;;;;25.75;12.98;;;;;17.60;96007.00;;;;8398816;28;20642;-68
2022/08/27 04:16:44;;;;;;;23.67;12.23;;;;;17.60;96014.00;;;;8394424;28;20723;-68
2022/08/27 04:20:49;;;;;;;28.10;13.65;;;;;17.60;96012.00;;;;8365583;28;20224;-68
2022/08/27 04:25:23;;;;;;;20.92;12.20;;;;;17.50;96010.00;;;;8365522;28;20250;-68
2022/08/27 04:29:28;;;;;;;26.83;13.30;;;;;17.60;96017.00;;;;8365123;28;20217;-68
2022/08/27 04:33:31;;;;;;;30.48;14.43;;;;;17.60;96017.00;;;;8365144;28;20661;-69
2022/08/27 04:38:08;;;;;;;27.13;14.48;;;;;17.60;96023.00;;;;8364884;28;20304;-69
2022/08/27 04:42:12;;;;;;;24.88;12.85;;;;;17.70;96026.00;;;;8363994;28;20292;-69
2022/08/27 04:46:21;;;;;;;38.13;15.32;;;;;17.80;96021.00;;;;8364437;28;20233;-68
2022/08/27 04:50:25;;;;;;;39.63;14.48;;;;;17.80;96027.00;;;;8364811;28;20217;-69
2022/08/27 04:54:28;;;;;;;47.50;16.13;;;;;17.90;96025.00;;;;8364301;28;20307;-68
2022/08/27 04:59:03;;;;;;;25.33;12.27;;;;;18.00;96028.00;;;;8363752;28;20232;-67
2022/08/27 05:03:08;;;;;;;24.05;12.93;;;;;18.00;96030.00;;;;8363446;28;20530;-67
2022/08/27 05:07:11;;;;;;;20.05;13.05;;;;;18.20;96034.00;;;;8363512;28;20308;-67
2022/08/27 05:11:16;;;;;;;24.52;13.20;;;;;18.30;96040.00;;;;8363038;28;20292;-68
2022/08/27 05:15:19;;;;;;;24.92;13.55;;;;;18.40;96036.00;;;;8363248;28;20311;-67
2022/08/27 05:19:24;;;;;;;16.90;11.23;;;;;18.60;96033.00;;;;8363809;28;20232;-68
2022/08/27 05:23:27;;;;;;;27.52;14.13;;;;;18.70;96038.00;;;;8363087;28;20299;-68
2022/08/27 05:27:30;;;;;;;25.95;14.32;;;;;18.90;96035.00;;;;8363438;28;20225;-68
2022/08/27 05:31:34;;;;;;;20.08;13.45;;;;;19.10;96031.00;;;;8362299;28;20228;-68
2022/08/27 05:36:14;;;;;;;20.90;13.15;;;;;19.30;96030.00;;;;8362877;28;20269;-68
2022/08/27 05:40:17;;;;;;;17.27;11.85;;;;;19.40;96036.00;;;;8362010;28;20590;-67
2022/08/27 05:44:21;;;;;;;25.58;12.50;;;;;19.40;96035.00;;;;8350270;28;20220;-67
2022/08/27 05:48:43;;;;;;;42.90;12.00;;;;;19.40;96041.00;;;;8361658;28;20243;-67
2022/08/27 05:53:22;;;;;;;40.70;12.15;;;;;19.40;96047.00;;;;8361960;28;20225;-69
2022/08/27 05:57:25;;;;;;;16.48;9.88;;;;;19.40;96043.00;;;;8361690;28;20228;-69
2022/08/27 06:02:02;;;;;;;13.35;9.52;;;;;19.50;96039.00;;;;8360528;28;20213;-69
2022/08/27 06:06:08;;;;;;;19.50;10.98;;;;;19.70;96041.00;;;;8361281;28;20320;-69
2022/08/27 06:10:13;;;;;;;14.40;9.77;;;;;19.90;96037.00;;;;8360669;28;20307;-69
2022/08/27 06:14:45;;;;;;;22.70;11.20;;;;;20.20;96031.00;;;;8361194;28;20278;-69
2022/08/27 06:18:49;;;;;;;17.00;10.88;;;;;20.40;96034.00;;;;8361710;28;20227;-69
2022/08/27 06:22:52;;;;;;;18.92;12.02;;;;;20.70;96029.00;;;;8360712;28;20224;-69
2022/08/27 06:26:56;;;;;;;20.98;12.57;;;;;20.80;96034.00;;;;8360925;28;20228;-69
2022/08/27 06:31:03;;;;;;;22.70;13.48;;;;;20.80;96031.00;;;;8360597;28;20613;-69
2022/08/27 06:35:41;;;;;;;25.60;13.52;;;;;20.80;96029.00;;;;8361367;28;20259;-69
2022/08/27 06:39:44;;;;;;;24.55;13.63;;;;;20.80;96035.00;;;;8361198;28;20222;-69
2022/08/27 06:43:49;;;;;;;21.13;13.57;;;;;20.80;96033.00;;;;8360590;28;20224;-69
2022/08/27 06:48:23;;;;;;;21.90;13.48;;;;;20.80;96044.00;;;;8360340;28;20576;-69
2022/08/27 06:53:00;;;;;;;18.88;12.10;;;;;21.00;96037.00;;;;8360053;28;20247;-69
2022/08/27 06:57:37;;;;;;;17.98;12.77;;;;;21.30;96052.00;;;;8360928;28;20235;-73
2022/08/27 07:01:44;;;;;;;15.55;12.40;;;;;21.50;96055.00;;;;8361409;28;20216;-73
2022/08/27 07:05:47;;;;;;;22.88;13.75;;;;;21.70;96063.00;;;;8360533;28;20225;-73
2022/08/27 07:09:50;;;;;;;19.67;13.63;;;;;22.10;96071.00;;;;8360014;28;20669;-73
2022/08/27 07:13:53;;;;;;;17.50;11.73;;;;;22.60;96077.00;;;;8361220;28;20325;-73
2022/08/27 07:17:58;;;;;;;20.10;13.23;;;;;23.10;96068.00;;;;8360515;28;20220;-73
2022/08/27 07:22:33;;;;;;;14.57;12.13;;;;;23.60;96080.00;;;;8360633;28;20565;-75
2022/08/27 07:26:38;;;;;;;15.88;11.25;;;;;24.30;96084.00;;;;8359810;28;20308;-75
2022/08/27 07:31:15;;;;;;;16.95;12.23;;;;;24.50;96088.00;;;;8360299;28;20230;-76
2022/08/27 07:35:20;;;;;;;19.33;12.32;;;;;24.80;96086.00;;;;8359854;28;20562;-71
2022/08/27 07:39:54;;;;;;;16.67;11.88;;;;;25.10;96089.00;;;;8360376;28;20225;-73
2022/08/27 07:48:56;;;;;;;17.00;12.68;;;;;26.00;96095.00;;;;8366916;28;20307;-72
2022/08/27 07:53:00;;;;;;;20.02;12.73;;;;;26.10;96097.00;;;;8365347;28;20296;-72
2022/08/27 07:57:04;;;;;;;20.85;12.80;;;;;26.00;96089.00;;;;8366306;28;20303;-72
2022/08/27 08:01:40;;;;;;;17.83;12.15;;;;;26.00;96091.00;;;;8366303;28;20307;-75
2022/08/27 08:05:44;;;;;;;20.23;14.38;;;;;26.90;96097.00;;;;8365459;28;20235;-73
2022/08/27 08:09:48;;;;;;;21.45;15.32;;;;;27.50;96097.00;;;;8365154;28;20225;-75
2022/08/27 08:14:23;;;;;;;24.05;15.88;;;;;27.50;96102.00;;;;8368126;28;20720;-71
2022/08/27 08:18:27;;;;;;;24.05;15.00;;;;;28.00;96107.00;;;;8398085;28;20216;-73
2022/08/27 08:23:02;;;;;;;19.33;14.48;;;;;28.60;96116.00;;;;8398658;28;20244;-74
2022/08/27 08:27:41;;;;;;;22.50;13.73;;;;;28.50;96110.00;;;;8396161;28;20236;-73
2022/08/27 08:32:15;;;;;;;17.60;13.02;;;;;27.70;96116.00;;;;8388820;28;20294;-73
2022/08/27 08:36:52;;;;;;;17.23;12.30;;;;;27.30;96114.00;;;;8397768;28;20220;-74
2022/08/27 08:41:37;;;;;;;19.27;12.68;;;;;27.30;96113.00;;;;8385705;28;20208;-74
2022/08/27 08:46:12;;;;;;;17.15;12.45;;;;;27.10;96117.00;;;;8398013;28;20232;-74
2022/08/27 08:50:19;;;;;;;15.18;11.05;;;;;27.00;96118.00;;;;8388158;28;20227;-75
2022/08/27 08:54:25;;;;;;;17.08;11.57;;;;;27.50;96106.00;;;;8397868;28;20665;-74
2022/08/27 08:59:02;;;;;;;15.75;11.80;;;;;27.90;96112.00;;;;8397818;28;20215;-74
2022/08/27 09:03:07;;;;;;;20.85;12.68;;;;;28.00;96113.00;;;;8397190;28;20311;-74
2022/08/27 09:07:19;;;;;;;17.38;11.70;;;;;28.70;96103.00;;;;8397443;28;20272;-75
2022/08/27 09:11:50;;;;;;;16.90;11.35;;;;;29.00;96116.00;;;;8397788;28;20234;-75
2022/08/27 09:15:57;;;;;;;16.50;12.02;;;;;27.90;96118.00;;;;8396944;28;20295;-75
2022/08/27 09:20:01;;;;;;;16.73;11.98;;;;;26.80;96119.00;;;;8396108;28;20226;-76
2022/08/27 09:24:25;;;;;;;20.35;13.50;;;;;26.20;96126.00;;;;8396485;28;20220;-76
2022/08/27 09:33:05;;;;;;;23.20;12.77;;;;;25.50;96125.00;;;;8261218;28;20230;-75
2022/08/27 09:37:14;;;;;;;21.40;12.57;;;;;25.30;96125.00;;;;8320771;28;20247;-76
2022/08/27 09:41:22;;;;;;;18.98;12.27;;;;;25.00;96117.00;;;;8396167;28;20232;-77
2022/08/27 09:45:28;;;;;;;19.77;13.45;;;;;25.20;96111.00;;;;8395571;28;20318;-76
2022/08/27 09:50:04;;;;;;;20.15;12.95;;;;;25.80;96106.00;;;;8395328;28;20281;-76
2022/08/27 09:54:11;;;;;;;18.30;12.25;;;;;26.30;96114.00;;;;8395929;28;20278;-76
2022/08/27 09:58:20;;;;;;;18.73;11.35;;;;;26.30;96102.00;;;;8395854;28;20323;-77
2022/08/27 10:02:54;;;;;;;15.50;10.45;;;;;26.50;96102.00;;;;8395014;28;20298;-77
2022/08/27 10:06:57;;;;;;;18.08;10.90;;;;;26.80;96104.00;;;;8394764;28;20291;-77
2022/08/27 10:11:06;;;;;;;13.93;9.50;;;;;26.90;96105.00;;;;8395176;28;20307;-77
2022/08/27 10:15:29;;;;;;;15.10;10.05;;;;;27.10;96106.00;;;;8395214;28;20223;-78
2022/08/27 10:19:59;;;;;;;16.73;10.32;;;;;27.50;96107.00;;;;8383071;28;20212;-78
2022/08/27 10:24:16;;;;;;;15.05;11.38;;;;;27.80;96105.00;;;;8394912;28;20226;-78
2022/08/27 10:28:35;;;;;;;18.00;10.95;;;;;27.90;96101.00;;;;8395275;28;20745;-78
2022/08/27 10:32:51;;;;;;;17.05;11.48;;;;;27.80;96103.00;;;;8394627;28;20215;-78
2022/08/27 10:37:09;;;;;;;14.55;10.65;;;;;27.70;96104.00;;;;8394929;28;20299;-78
2022/08/27 10:41:18;;;;;;;15.23;10.75;;;;;27.60;96106.00;;;;8394621;28;20310;-79
2022/08/27 10:45:41;;;;;;;17.50;10.55;;;;;27.80;96108.00;;;;8394967;28;20224;-79
2022/08/27 10:50:03;;;;;;;13.93;10.60;;;;;27.90;96118.00;;;;8393911;28;20222;-79
2022/08/27 10:54:15;;;;;;;15.32;10.35;;;;;28.00;96107.00;;;;8394145;28;20226;-78
2022/08/27 10:58:35;;;;;;;15.80;10.05;;;;;27.90;96106.00;;;;8393681;28;20220;-79
2022/08/27 11:03:02;;;;;;;13.75;10.77;;;;;27.90;96107.00;;;;8394423;28;20220;-79
2022/08/27 11:07:12;;;;;;;12.60;9.45;;;;;27.90;96103.00;;;;8394583;28;20577;-80
2022/08/27 11:11:25;;;;;;;14.43;9.98;;;;;27.80;96115.00;;;;8392798;28;20223;-79
2022/08/27 11:15:51;;;;;;;12.07;9.68;;;;;27.60;96111.00;;;;8396268;28;20273;-75
2022/08/27 11:20:01;;;;;;;11.68;9.52;;;;;27.40;96108.00;;;;8400496;28;20216;-75
2022/08/27 11:24:34;;;;;;;17.95;11.25;;;;;26.90;96106.00;;;;8400562;28;20215;-76
2022/08/27 11:28:41;;;;;;;17.10;10.95;;;;;26.10;96110.00;;;;8399800;28;20579;-83
2022/08/27 11:32:55;;;;;;;14.27;10.75;;;;;25.30;96115.00;;;;8399597;28;20228;-69
2022/08/27 11:37:31;;;;;;;20.33;12.75;;;;;24.30;96120.00;;;;8400248;28;20230;-66
2022/08/27 11:41:54;;;;;;;22.92;10.80;;;;;23.40;96095.00;;;;8399181;28;20557;-68
2022/08/27 11:45:59;;;;;;;17.35;10.45;;;;;22.90;96102.00;;;;8399104;28;20281;-67
2022/08/27 11:50:07;;;;;;;20.85;11.73;;;;;22.60;96118.00;;;;8386177;28;20219;-66
2022/08/27 11:54:30;;;;;;;18.35;11.25;;;;;22.40;96115.00;;;;8399495;28;20230;-67
2022/08/27 11:58:34;;;;;;;15.43;10.52;;;;;22.20;96124.00;;;;8398589;28;20608;-68
2022/08/27 12:03:23;;;;;;;18.73;10.38;;;;;21.60;96131.00;;;;8398673;28;20219;-67
2022/08/27 12:07:35;;;;;;;19.08;12.23;;;;;21.40;96134.00;;;;8398409;28;20220;-67
2022/08/27 12:12:07;;;;;;;25.35;13.18;;;;;21.20;96135.00;;;;8398218;28;20219;-69
2022/08/27 12:16:24;;;;;;;20.15;12.68;;;;;21.10;96125.00;;;;8397711;28;20242;-75
2022/08/27 12:20:45;;;;;;;23.00;13.88;;;;;21.00;96126.00;;;;8398639;28;20216;-70
2022/08/27 12:25:06;;;;;;;27.33;14.70;;;;;20.90;96122.00;;;;8386475;28;20548;-69
2022/08/27 12:29:46;;;;;;;21.38;12.88;;;;;20.90;96114.00;;;;8397727;28;20273;-69
2022/08/27 12:34:00;;;;;;;17.40;10.98;;;;;20.90;96110.00;;;;8397881;28;20234;-68
2022/08/27 12:38:41;;;;;;;24.77;12.85;;;;;20.80;96104.00;;;;8398322;28;20215;-68
2022/08/27 12:42:50;;;;;;;20.75;11.43;;;;;20.90;96096.00;;;;8397919;28;20227;-66
2022/08/27 12:47:01;;;;;;;20.85;12.07;;;;;21.10;96096.00;;;;8398515;28;20230;-67
2022/08/27 12:51:13;;;;;;;19.38;12.38;;;;;21.30;96090.00;;;;8396679;28;20219;-68
2022/08/27 12:55:26;;;;;;;19.35;12.02;;;;;21.50;96088.00;;;;8397442;28;20231;-68
2022/08/27 12:59:47;;;;;;;19.20;11.75;;;;;21.60;96090.00;;;;8397430;28;20314;-70
2022/08/27 13:04:04;;;;;;;31.48;13.10;;;;;21.70;96088.00;;;;8385356;28;20228;-71
2022/08/27 13:08:40;;;;;;;17.83;11.35;;;;;21.80;96083.00;;;;8396699;28;20305;-70
2022/08/27 13:13:19;;;;;;;17.25;11.90;;;;;21.90;96086.00;;;;8396777;28;20212;-70
2022/08/27 13:17:55;;;;;;;18.48;11.45;;;;;21.80;96087.00;;;;8396720;28;20330;-70
2022/08/27 13:22:06;;;;;;;16.00;11.80;;;;;21.90;96081.00;;;;8395365;28;20585;-70
2022/08/27 13:26:47;;;;;;;16.15;10.80;;;;;22.00;96079.00;;;;8396249;28;20220;-69
2022/08/27 13:30:51;;;;;;;16.55;11.02;;;;;22.20;96078.00;;;;8396130;28;20271;-72
2022/08/27 13:35:31;;;;;;;14.75;10.07;;;;;22.30;96078.00;;;;8396190;28;20230;-71
2022/08/27 13:39:37;;;;;;;16.88;10.60;;;;;22.50;96078.00;;;;8395320;28;20216;-70
2022/08/27 13:44:09;;;;;;;14.73;10.07;;;;;22.80;96075.00;;;;8396524;28;20232;-69
2022/08/27 13:48:48;;;;;;;15.80;10.32;;;;;22.90;96064.00;;;;8395145;28;20235;-69
2022/08/27 13:57:31;;;;;;;11.15;9.32;;;;;23.10;96050.00;;;;8395256;28;20219;-68
2022/08/27 14:02:03;;;;;;;15.23;10.63;;;;;23.10;96053.00;;;;8395673;28;20227;-68
2022/08/27 14:06:07;;;;;;;14.20;10.27;;;;;23.30;96057.00;;;;8394835;28;20228;-68
2022/08/27 14:10:45;;;;;;;12.98;8.82;;;;;23.40;96060.00;;;;8395200;28;20723;-69
2022/08/27 14:15:21;;;;;;;14.75;8.75;;;;;23.50;96066.00;;;;8394572;28;20312;-70
2022/08/27 14:19:59;;;;;;;11.65;8.75;;;;;23.60;96064.00;;;;8381675;28;20212;-71
2022/08/27 14:24:04;;;;;;;14.52;8.52;;;;;23.60;96060.00;;;;8394841;28;20216;-71
2022/08/27 14:28:38;;;;;;;10.02;7.70;;;;;23.70;96063.00;;;;8394506;28;20220;-70
2022/08/27 14:33:16;;;;;;;11.38;7.82;;;;;23.70;96059.00;;;;8395078;28;20315;-70
2022/08/27 14:37:50;;;;;;;9.90;8.13;;;;;23.70;96057.00;;;;8394337;28;20727;-69
2022/08/27 14:42:27;;;;;;;14.50;7.88;;;;;23.80;96062.00;;;;8393960;28;20273;-69
2022/08/27 14:46:34;;;;;;;10.77;8.10;;;;;24.00;96061.00;;;;8386021;28;20223;-68
2022/08/27 14:50:44;;;;;;;10.38;7.78;;;;;24.00;96055.00;;;;8393756;28;20308;-68
2022/08/27 14:54:51;;;;;;;8.85;7.38;;;;;24.00;96064.00;;;;8394125;28;20327;-68
2022/08/27 14:58:54;;;;;;;10.27;7.57;;;;;24.10;96064.00;;;;8394476;28;20749;-68
2022/08/27 15:03:28;;;;;;;9.70;6.72;;;;;24.10;96057.00;;;;8393852;28;20254;-67
2022/08/27 15:07:33;;;;;;;9.95;7.38;;;;;24.30;96055.00;;;;8394653;28;20298;-67
2022/08/27 15:11:38;;;;;;;7.93;6.45;;;;;24.70;96057.00;;;;8393308;28;20600;-68
2022/08/27 15:16:16;;;;;;;8.85;6.95;;;;;25.00;96064.00;;;;8394453;28;20219;-67
2022/08/27 15:20:19;;;;;;;7.10;6.38;;;;;25.30;96061.00;;;;8393867;28;20216;-68
2022/08/27 15:24:58;;;;;;;7.15;6.40;;;;;25.70;96056.00;;;;8394238;28;20212;-68
2022/08/27 15:29:35;;;;;;;9.38;5.85;;;;;26.40;96049.00;;;;8393506;28;20310;-68
2022/08/27 15:34:12;;;;;;;9.60;5.43;;;;;26.70;96055.00;;;;8393133;28;20542;-68
2022/08/27 15:38:49;;;;;;;7.45;5.90;;;;;26.00;96077.00;;;;8393442;28;20219;-68
2022/08/27 15:42:57;;;;;;;9.55;6.57;;;;;24.90;96067.00;;;;8393529;28;20307;-68
2022/08/27 15:47:28;;;;;;;6.50;4.85;;;;;24.00;96068.00;;;;8393768;28;20220;-68
2022/08/27 15:52:04;;;;;;;5.65;4.80;;;;;23.10;96067.00;;;;8383635;28;20302;-74
2022/08/27 15:56:41;;;;;;;7.10;5.68;;;;;22.50;96065.00;;;;8393221;28;20235;-69
2022/08/27 16:00:46;;;;;;;4.85;4.25;;;;;22.20;96067.00;;;;8393024;28;20216;-71
2022/08/27 16:05:21;;;;;;;6.97;4.63;;;;;22.10;96061.00;;;;8399051;28;20233;-69
2022/08/27 16:09:55;;;;;;;8.93;4.90;;;;;22.00;96061.00;;;;8385755;28;20238;-68
2022/08/27 16:13:58;;;;;;;8.00;4.25;;;;;22.00;96057.00;;;;8398904;28;20848;-68
2022/08/27 16:18:38;;;;;;;9.65;5.22;;;;;22.00;96057.00;;;;8398650;28;20661;-68
2022/08/27 16:23:12;;;;;;;7.53;5.07;;;;;21.90;96059.00;;;;8385608;28;20497;-68
2022/08/27 16:27:17;;;;;;;7.13;4.78;;;;;21.80;96063.00;;;;8397649;28;20224;-68
2022/08/27 16:31:20;;;;;;;6.35;4.30;;;;;21.80;96059.00;;;;8398890;28;20731;-68
2022/08/27 16:35:26;;;;;;;8.95;4.30;;;;;21.70;96060.00;;;;8398295;28;20230;-68
2022/08/27 16:39:29;;;;;;;7.32;4.30;;;;;21.70;96061.00;;;;8398193;28;20648;-68
2022/08/27 16:44:06;;;;;;;4.88;3.70;;;;;21.60;96059.00;;;;8398247;28;20265;-68
2022/08/27 16:52:46;;;;;;;3.25;2.83;;;;;21.30;96065.00;;;;8397272;28;20219;-68
2022/08/27 16:57:20;;;;;;;3.65;3.30;;;;;21.20;96069.00;;;;8397086;28;20622;-68
2022/08/27 17:01:24;;;;;;;4.78;3.50;;;;;21.20;96069.00;;;;8396962;28;20645;-68
2022/08/27 17:05:58;;;;;;;7.63;4.30;;;;;21.20;96072.00;;;;8401764;28;20216;-68
2022/08/27 17:10:05;;;;;;;5.13;3.67;;;;;21.30;96074.00;;;;8397050;28;20624;-67
2022/08/27 17:14:39;;;;;;;3.78;3.42;;;;;21.30;96074.00;;;;8396629;28;20224;-67
2022/08/27 17:18:42;;;;;;;9.05;3.90;;;;;21.30;96078.00;;;;8397100;28;20220;-67
2022/08/27 17:22:45;;;;;;;3.30;3.00;;;;;21.20;96083.00;;;;8392906;28;20307;-67
2022/08/27 17:27:22;;;;;;;6.72;2.95;;;;;21.20;96080.00;;;;8396601;28;20259;-67
2022/08/27 17:31:31;;;;;;;5.38;3.08;;;;;21.20;96080.00;;;;8396059;28;20722;-67
2022/08/27 17:36:01;;;;;;;3.47;3.00;;;;;21.10;96079.00;;;;8396020;28;20534;-66
2022/08/27 17:40:09;;;;;;;5.15;2.97;;;;;21.10;96081.00;;;;8395880;28;20616;-66
2022/08/27 17:44:43;;;;;;;4.90;3.05;;;;;21.00;96087.00;;;;8387153;28;20220;-66
2022/08/27 17:48:48;;;;;;;3.95;2.72;;;;;21.10;96091.00;;;;8382614;28;20226;-66
2022/08/27 17:53:22;;;;;;;5.28;3.22;;;;;21.00;96086.00;;;;8394986;28;20224;-66
2022/08/27 17:57:28;;;;;;;4.63;3.35;;;;;20.90;96094.00;;;;8395474;28;20223;-67
2022/08/27 18:01:42;;;;;;;6.22;3.25;;;;;20.90;96092.00;;;;8395002;28;20224;-67
2022/08/27 18:05:48;;;;;;;6.18;3.15;;;;;20.90;96107.00;;;;8395350;28;20311;-67
2022/08/27 18:09:51;;;;;;;5.68;4.05;;;;;20.90;96112.00;;;;8395338;28;20231;-67
2022/08/27 18:14:25;;;;;;;5.32;4.40;;;;;20.80;96122.00;;;;8394729;28;20276;-67
2022/08/27 18:18:28;;;;;;;7.97;5.22;;;;;20.90;96128.00;;;;8394956;28;20394;-67
2022/08/27 18:22:33;;;;;;;7.30;5.40;;;;;20.90;96129.00;;;;8394664;28;20736;-67
2022/08/27 18:27:08;;;;;;;6.50;4.60;;;;;20.90;96140.00;;;;8394527;28;20773;-67
2022/08/27 18:31:13;;;;;;;7.65;4.57;;;;;20.90;96130.00;;;;8394878;28;20298;-67
2022/08/27 18:35:19;;;;;;;11.93;4.85;;;;;20.90;96127.00;;;;8395005;28;20226;-67
2022/08/27 18:39:24;;;;;;;7.78;5.38;;;;;20.80;96132.00;;;;8394297;28;20224;-67
2022/08/27 18:44:01;;;;;;;6.38;5.13;;;;;20.80;96127.00;;;;8394972;28;20220;-67
2022/08/27 18:48:36;;;;;;;7.07;5.00;;;;;20.70;96132.00;;;;8394238;28;20323;-67
2022/08/27 18:52:41;;;;;;;6.15;5.10;;;;;20.60;96140.00;;;;8393882;28;20290;-67
2022/08/27 18:56:46;;;;;;;9.40;5.38;;;;;20.60;96152.00;;;;8393412;28;20235;-68
2022/08/27 19:01:23;;;;;;;5.45;4.53;;;;;20.60;96157.00;;;;8394060;28;20237;-67
2022/08/27 19:05:27;;;;;;;8.20;5.75;;;;;20.60;96159.00;;;;8393913;28;20609;-67
2022/08/27 19:10:03;;;;;;;8.50;5.90;;;;;20.50;96171.00;;;;8394139;28;20303;-67
2022/08/27 19:14:38;;;;;;;11.77;6.07;;;;;20.50;96164.00;;;;8381446;28;25759;-67
2022/08/27 19:19:15;;;;;;;6.85;5.35;;;;;20.50;96168.00;;;;8394459;28;20607;-67
2022/08/27 19:23:18;;;;;;;6.75;5.00;;;;;20.60;96171.00;;;;8393119;28;20227;-67
2022/08/27 19:27:26;;;;;;;7.15;5.43;;;;;20.70;96185.00;;;;8393714;28;20227;-67
2022/08/27 19:32:02;;;;;;;8.13;5.95;;;;;20.60;96182.00;;;;8393511;28;20277;-67
2022/08/27 19:36:37;;;;;;;8.73;5.32;;;;;20.60;96183.00;;;;8396868;28;20664;-67
2022/08/27 19:41:11;;;;;;;10.13;5.50;;;;;20.60;96184.00;;;;8399949;28;20216;-67
2022/08/27 19:45:14;;;;;;;6.90;5.30;;;;;20.60;96185.00;;;;8400071;28;20219;-67
2022/08/27 19:49:26;;;;;;;9.80;5.03;;;;;20.70;96184.00;;;;8399302;28;20320;-67
2022/08/27 19:54:00;;;;;;;5.75;5.05;;;;;20.60;96185.00;;;;8399473;28;20219;-67
2022/08/27 19:58:37;;;;;;;5.60;4.78;;;;;20.70;96175.00;;;;8399684;28;20223;-67
2022/08/27 20:03:14;;;;;;;8.35;5.10;;;;;20.70;96177.00;;;;8398564;28;20219;-67
2022/08/27 20:07:20;;;;;;;9.93;5.20;;;;;20.80;96173.00;;;;8399194;28;20230;-67
2022/08/27 20:11:23;;;;;;;9.40;5.47;;;;;20.80;96175.00;;;;8398889;28;20254;-67
2022/08/27 20:15:27;;;;;;;9.75;6.00;;;;;20.80;96174.00;;;;8398748;28;20251;-67
2022/08/27 20:19:30;;;;;;;8.82;5.82;;;;;20.70;96185.00;;;;8398587;28;20238;-67
2022/08/27 20:24:08;;;;;;;7.60;5.57;;;;;20.60;96185.00;;;;8398020;28;20258;-67
2022/08/27 20:28:11;;;;;;;11.35;6.55;;;;;20.60;96180.00;;;;8398302;28;20224;-67
2022/08/27 20:32:35;;;;;;;10.63;6.80;;;;;20.60;96170.00;;;;8397677;28;20220;-67
2022/08/27 20:37:09;;;;;;;11.13;6.50;;;;;20.60;96166.00;;;;8398643;28;20212;-67
2022/08/27 20:41:14;;;;;;;8.80;6.90;;;;;20.60;96164.00;;;;8397507;28;20239;-67
2022/08/27 20:45:47;;;;;;;10.85;6.80;;;;;20.60;96163.00;;;;8398601;28;20216;-67
2022/08/27 20:50:25;;;;;;;6.75;6.05;;;;;20.60;96174.00;;;;8396569;28;20300;-67
2022/08/27 20:55:03;;;;;;;11.32;6.65;;;;;20.60;96174.00;;;;8396740;28;20269;-67
2022/08/27 21:04:01;;;;;;;9.55;7.10;;;;;20.60;96171.00;;;;8384675;28;20673;-67
2022/08/27 21:08:06;;;;;;;10.05;7.03;;;;;20.60;96166.00;;;;8397479;28;20228;-67
2022/08/27 21:12:09;;;;;;;10.98;6.43;;;;;20.60;96169.00;;;;8396685;28;20657;-67
2022/08/27 21:16:48;;;;;;;8.75;6.10;;;;;20.60;96169.00;;;;8396724;28;20229;-67
2022/08/27 21:20:52;;;;;;;17.30;8.05;;;;;20.60;96169.00;;;;8397268;28;20573;-67
2022/08/27 21:25:30;;;;;;;11.20;7.40;;;;;20.60;96174.00;;;;8395954;28;20271;-67